createdAt,value
2019-01-29T00:00:43.606Z,122.62
2019-01-29T00:01:51.227Z,113.15
2019-01-29T00:02:57.884Z,124.47
2019-01-29T00:04:06.282Z,117.03
2019-01-29T00:05:13.201Z,117.05
2019-01-29T00:06:19.791Z,120.87
2019-01-29T00:07:26.540Z,125.27
2019-01-29T00:08:32.991Z,106.07
2019-01-29T00:09:39.731Z,122.80
2019-01-29T00:10:46.510Z,132.32
2019-01-29T00:11:53.116Z,124.97
2019-01-29T00:13:00.666Z,121.62
2019-01-29T00:14:07.288Z,119.42
2019-01-29T00:15:16.506Z,129.75
2019-01-29T00:16:22.902Z,124.95
2019-01-29T00:17:29.308Z,123.35
2019-01-29T00:18:35.721Z,122.20
2019-01-29T00:19:42.383Z,135.78
2019-01-29T00:20:49.026Z,123.53
2019-01-29T00:21:55.623Z,123.67
2019-01-29T00:23:02.106Z,131.80
2019-01-29T00:24:08.649Z,121.67
2019-01-29T00:25:15.715Z,120.00
2019-01-29T00:26:22.298Z,126.75
2019-01-29T00:27:28.843Z,123.02
2019-01-29T00:28:35.815Z,120.75
2019-01-29T00:29:42.349Z,111.17
2019-01-29T00:30:48.739Z,118.50
2019-01-29T00:31:55.199Z,115.70
2019-01-29T00:33:01.603Z,122.85
2019-01-29T00:34:07.996Z,118.42
2019-01-29T00:35:14.763Z,120.90
2019-01-29T00:36:21.228Z,110.50
2019-01-29T00:37:27.684Z,117.50
2019-01-29T00:38:34.041Z,114.15
2019-01-29T00:39:40.379Z,122.62
2019-01-29T00:40:46.802Z,118.00
2019-01-29T00:41:53.106Z,123.20
2019-01-29T00:42:59.856Z,117.15
2019-01-29T00:44:07.702Z,117.03
2019-01-29T00:45:14.421Z,116.30
2019-01-29T00:46:20.826Z,109.72
2019-01-29T00:47:27.235Z,116.73
2019-01-29T00:48:33.663Z,117.30
2019-01-29T00:49:39.980Z,118.62
2019-01-29T00:50:46.393Z,116.37
2019-01-29T00:51:52.849Z,111.03
2019-01-29T00:52:59.316Z,118.13
2019-01-29T00:54:06.287Z,118.00
2019-01-29T00:55:13.549Z,111.62
2019-01-29T00:56:21.107Z,109.42
2019-01-29T00:57:27.542Z,113.75
2019-01-29T00:58:34.033Z,104.25
2019-01-29T00:59:40.615Z,108.87
2019-01-29T01:00:47.095Z,109.80
2019-01-29T01:01:53.581Z,101.38
2019-01-29T01:03:00.007Z,99.67
2019-01-29T01:04:06.564Z,109.50
2019-01-29T01:05:13.074Z,102.02
2019-01-29T01:06:19.820Z,99.32
2019-01-29T01:07:26.276Z,98.40
2019-01-29T01:08:32.755Z,103.42
2019-01-29T01:09:39.243Z,97.08
2019-01-29T01:10:45.959Z,102.47
2019-01-29T01:11:52.296Z,94.75
2019-01-29T01:12:58.728Z,112.62
2019-01-29T01:14:05.970Z,101.10
2019-01-29T01:15:13.785Z,92.42
2019-01-29T01:16:20.513Z,96.30
2019-01-29T01:17:26.958Z,101.38
2019-01-29T01:18:33.316Z,96.10
2019-01-29T01:19:39.991Z,96.00
2019-01-29T01:20:46.352Z,103.38
2019-01-29T01:21:52.915Z,89.28
2019-01-29T01:22:59.337Z,92.33
2019-01-29T01:24:05.750Z,94.77
2019-01-29T01:25:12.601Z,97.40
2019-01-29T01:26:20.088Z,95.03
2019-01-29T01:27:26.531Z,92.20
2019-01-29T01:28:32.966Z,95.80
2019-01-29T01:29:39.316Z,102.67
2019-01-29T01:30:46.037Z,94.97
2019-01-29T01:31:52.530Z,96.85
2019-01-29T01:33:01.412Z,93.47
2019-01-29T01:34:07.741Z,100.18
2019-01-29T01:35:14.329Z,91.12
2019-01-29T01:36:20.729Z,99.13
2019-01-29T01:37:27.098Z,89.58
2019-01-29T01:38:33.496Z,97.10
2019-01-29T01:39:39.950Z,99.87
2019-01-29T01:40:46.371Z,92.12
2019-01-29T01:41:52.755Z,90.57
2019-01-29T01:42:59.205Z,89.07
2019-01-29T01:44:05.842Z,95.53
2019-01-29T01:45:12.693Z,86.28
2019-01-29T01:46:19.337Z,91.30
2019-01-29T01:47:25.883Z,90.55
2019-01-29T01:48:32.197Z,82.20
2019-01-29T01:49:38.630Z,89.03
2019-01-29T01:50:45.074Z,83.45
2019-01-29T01:51:51.621Z,85.00
2019-01-29T01:52:59.265Z,85.87
2019-01-29T01:54:08.150Z,91.45
2019-01-29T01:55:16.958Z,83.60
2019-01-29T01:56:23.306Z,83.75
2019-01-29T01:57:29.776Z,87.15
2019-01-29T01:58:36.141Z,81.05
2019-01-29T01:59:42.542Z,80.12
2019-01-29T02:00:50.100Z,84.87
2019-01-29T02:01:56.647Z,82.85
2019-01-29T02:03:03.025Z,81.37
2019-01-29T02:04:09.471Z,88.07
2019-01-29T02:05:16.142Z,87.47
2019-01-29T02:06:22.695Z,84.37
2019-01-29T02:07:30.253Z,83.30
2019-01-29T02:08:36.705Z,80.45
2019-01-29T02:09:43.381Z,90.50
2019-01-29T02:10:49.870Z,85.80
2019-01-29T02:11:56.396Z,80.67
2019-01-29T02:13:05.586Z,79.55
2019-01-29T02:14:12.248Z,79.30
2019-01-29T02:15:20.502Z,79.07
2019-01-29T02:16:28.086Z,83.33
2019-01-29T02:17:34.691Z,77.12
2019-01-29T02:18:41.301Z,69.35
2019-01-29T02:19:47.814Z,78.85
2019-01-29T02:20:55.366Z,75.52
2019-01-29T02:22:01.750Z,77.12
2019-01-29T02:23:08.474Z,73.00
2019-01-29T02:24:15.026Z,75.05
2019-01-29T02:25:21.436Z,78.95
2019-01-29T02:26:28.454Z,74.58
2019-01-29T02:27:35.005Z,73.20
2019-01-29T02:28:41.498Z,78.37
2019-01-29T02:29:49.151Z,79.87
2019-01-29T02:30:55.826Z,88.87
2019-01-29T02:32:03.734Z,79.42
2019-01-29T02:33:21.176Z,74.22
2019-01-29T02:34:27.637Z,78.30
2019-01-29T02:35:34.230Z,82.80
2019-01-29T02:36:40.854Z,80.20
2019-01-29T02:37:47.291Z,78.55
2019-01-29T02:38:53.741Z,77.87
2019-01-29T02:40:02.607Z,83.70
2019-01-29T02:41:09.091Z,88.50
2019-01-29T02:42:17.948Z,79.10
2019-01-29T02:43:24.572Z,84.28
2019-01-29T02:44:30.975Z,85.12
2019-01-29T02:45:37.551Z,74.97
2019-01-29T02:46:43.968Z,74.90
2019-01-29T02:47:50.401Z,78.55
2019-01-29T02:48:57.150Z,75.47
2019-01-29T02:50:03.660Z,73.57
2019-01-29T02:51:10.187Z,74.20
2019-01-29T02:52:16.553Z,72.40
2019-01-29T02:53:23.040Z,81.65
2019-01-29T02:54:29.418Z,79.12
2019-01-29T02:55:35.869Z,84.70
2019-01-29T02:56:42.408Z,77.55
2019-01-29T02:57:49.001Z,82.92
2019-01-29T02:58:55.575Z,84.05
2019-01-29T03:00:03.395Z,75.97
2019-01-29T03:01:09.841Z,79.92
2019-01-29T03:02:16.502Z,72.50
2019-01-29T03:03:23.399Z,77.90
2019-01-29T03:05:23.137Z,77.53
2019-01-29T03:07:34.124Z,76.37
2019-01-29T03:08:41.321Z,73.95
2019-01-29T03:09:47.996Z,70.15
2019-01-29T03:10:54.568Z,76.72
2019-01-29T03:12:01.064Z,75.87
2019-01-29T03:13:08.904Z,69.45
2019-01-29T03:14:15.343Z,70.75
2019-01-29T03:15:27.576Z,67.50
2019-01-29T03:16:35.180Z,74.15
2019-01-29T03:17:41.726Z,75.47
2019-01-29T03:18:48.365Z,72.95
2019-01-29T03:19:54.981Z,71.55
2019-01-29T03:21:01.593Z,74.25
2019-01-29T03:22:08.235Z,67.40
2019-01-29T03:23:14.723Z,66.35
2019-01-29T03:24:21.311Z,70.17
2019-01-29T03:25:27.939Z,66.17
2019-01-29T03:26:34.454Z,68.00
2019-01-29T03:27:41.041Z,68.80
2019-01-29T03:28:47.438Z,64.00
2019-01-29T03:29:54.191Z,70.60
2019-01-29T03:31:00.584Z,61.68
2019-01-29T03:32:07.161Z,63.17
2019-01-29T03:33:13.597Z,66.85
2019-01-29T03:34:20.158Z,60.25
2019-01-29T03:35:26.718Z,57.85
2019-01-29T03:36:33.238Z,61.95
2019-01-29T03:37:39.702Z,60.88
2019-01-29T03:38:46.117Z,66.55
2019-01-29T03:39:52.511Z,70.55
2019-01-29T03:40:58.992Z,64.20
2019-01-29T03:42:05.396Z,71.20
2019-01-29T03:43:11.807Z,66.65
2019-01-29T03:44:18.366Z,66.12
2019-01-29T03:45:24.890Z,69.27
2019-01-29T03:46:31.372Z,64.70
2019-01-29T03:47:37.892Z,67.90
2019-01-29T03:48:44.313Z,68.92
2019-01-29T03:49:51.222Z,67.78
2019-01-29T03:50:57.638Z,74.05
2019-01-29T03:52:04.087Z,67.32
2019-01-29T03:53:10.496Z,59.53
2019-01-29T03:54:17.231Z,71.92
2019-01-29T03:55:23.664Z,64.75
2019-01-29T03:56:30.046Z,64.25
2019-01-29T03:57:36.606Z,71.47
2019-01-29T03:58:43.090Z,71.92
2019-01-29T03:59:50.843Z,70.62
2019-01-29T04:00:57.241Z,67.03
2019-01-29T04:02:03.759Z,64.20
2019-01-29T04:03:10.481Z,66.87
2019-01-29T04:04:16.906Z,60.80
2019-01-29T04:05:23.337Z,63.83
2019-01-29T04:06:29.725Z,64.97
2019-01-29T04:07:36.016Z,63.90
2019-01-29T04:08:42.484Z,69.53
2019-01-29T04:09:49.108Z,61.90
2019-01-29T04:10:55.629Z,65.20
2019-01-29T04:12:02.007Z,70.30
2019-01-29T04:13:08.401Z,67.70
2019-01-29T04:14:14.874Z,73.25
2019-01-29T04:15:22.004Z,66.02
2019-01-29T04:16:28.416Z,69.03
2019-01-29T04:17:34.805Z,66.47
2019-01-29T04:18:44.008Z,62.30
2019-01-29T04:19:50.488Z,64.60
2019-01-29T04:20:58.375Z,69.92
2019-01-29T04:22:06.225Z,69.85
2019-01-29T04:23:12.593Z,66.28
2019-01-29T04:24:18.985Z,64.55
2019-01-29T04:25:25.622Z,72.15
2019-01-29T04:26:32.023Z,65.97
2019-01-29T04:27:38.519Z,65.65
2019-01-29T04:28:44.935Z,66.05
2019-01-29T04:29:52.506Z,68.80
2019-01-29T04:30:58.981Z,67.95
2019-01-29T04:32:05.457Z,63.90
2019-01-29T04:33:12.047Z,68.30
2019-01-29T04:34:18.666Z,64.80
2019-01-29T04:35:25.082Z,69.35
2019-01-29T04:36:31.634Z,65.00
2019-01-29T04:37:38.156Z,66.20
2019-01-29T04:38:44.801Z,65.17
2019-01-29T04:39:51.400Z,62.03
2019-01-29T04:40:58.005Z,67.03
2019-01-29T04:42:04.577Z,64.65
2019-01-29T04:43:13.040Z,64.37
2019-01-29T04:44:19.304Z,68.45
2019-01-29T04:45:25.834Z,60.73
2019-01-29T04:46:32.315Z,65.75
2019-01-29T04:47:38.961Z,64.35
2019-01-29T04:48:45.434Z,66.07
2019-01-29T04:49:53.566Z,68.62
2019-01-29T04:51:00.501Z,72.35
2019-01-29T04:52:07.192Z,60.65
2019-01-29T04:53:13.660Z,69.53
2019-01-29T04:54:20.337Z,61.00
2019-01-29T04:55:26.828Z,60.70
2019-01-29T04:56:33.247Z,64.77
2019-01-29T04:57:39.744Z,68.10
2019-01-29T04:58:46.170Z,62.05
2019-01-29T04:59:53.876Z,68.20
2019-01-29T05:01:01.106Z,59.73
2019-01-29T05:02:07.636Z,67.53
2019-01-29T05:03:14.045Z,64.62
2019-01-29T05:04:20.581Z,63.73
2019-01-29T05:05:27.071Z,68.37
2019-01-29T05:06:33.433Z,62.67
2019-01-29T05:07:39.936Z,62.20
2019-01-29T05:08:46.546Z,68.78
2019-01-29T05:09:53.252Z,64.40
2019-01-29T05:10:59.706Z,59.63
2019-01-29T05:12:06.118Z,68.28
2019-01-29T05:13:12.958Z,57.60
2019-01-29T05:14:19.617Z,58.25
2019-01-29T05:15:26.107Z,58.40
2019-01-29T05:16:32.523Z,68.20
2019-01-29T05:17:39.042Z,66.37
2019-01-29T05:18:45.354Z,71.28
2019-01-29T05:19:51.812Z,63.83
2019-01-29T05:20:58.351Z,60.43
2019-01-29T05:22:04.920Z,64.00
2019-01-29T05:23:11.369Z,61.25
2019-01-29T05:24:17.804Z,63.83
2019-01-29T05:25:24.200Z,67.12
2019-01-29T05:26:30.883Z,71.22
2019-01-29T05:27:37.287Z,63.48
2019-01-29T05:28:43.765Z,66.07
2019-01-29T05:29:52.440Z,62.35
2019-01-29T05:30:59.290Z,61.48
2019-01-29T05:32:05.844Z,64.35
2019-01-29T05:33:12.333Z,63.90
2019-01-29T05:34:18.786Z,65.57
2019-01-29T05:35:25.307Z,65.00
2019-01-29T05:36:31.683Z,68.72
2019-01-29T05:37:38.255Z,66.95
2019-01-29T05:38:44.885Z,67.95
2019-01-29T05:39:51.607Z,69.15
2019-01-29T05:40:57.980Z,61.00
2019-01-29T05:42:05.623Z,72.78
2019-01-29T05:43:12.227Z,62.43
2019-01-29T05:44:19.163Z,62.38
2019-01-29T05:45:26.521Z,62.27
2019-01-29T05:46:32.954Z,67.40
2019-01-29T05:47:39.413Z,64.90
2019-01-29T05:48:45.927Z,64.35
2019-01-29T05:49:52.494Z,63.95
2019-01-29T05:50:59.145Z,66.85
2019-01-29T05:52:05.624Z,69.35
2019-01-29T05:53:12.145Z,66.05
2019-01-29T05:54:18.800Z,61.28
2019-01-29T05:55:26.327Z,59.42
2019-01-29T05:56:32.916Z,68.30
2019-01-29T05:57:39.357Z,65.47
2019-01-29T05:58:45.739Z,62.67
2019-01-29T05:59:52.516Z,66.12
2019-01-29T06:00:59.100Z,61.40
2019-01-29T06:02:05.753Z,67.95
2019-01-29T06:03:12.706Z,69.30
2019-01-29T06:04:20.415Z,65.97
2019-01-29T06:05:26.927Z,64.58
2019-01-29T06:06:33.254Z,66.82
2019-01-29T06:07:39.658Z,71.37
2019-01-29T06:08:46.226Z,66.33
2019-01-29T06:09:52.738Z,63.70
2019-01-29T06:10:59.233Z,70.55
2019-01-29T06:12:05.759Z,70.78
2019-01-29T06:13:12.303Z,65.75
2019-01-29T06:14:29.565Z,62.65
2019-01-29T06:15:35.909Z,62.55
2019-01-29T06:16:42.327Z,66.25
2019-01-29T06:17:48.855Z,61.58
2019-01-29T06:18:55.282Z,66.25
2019-01-29T06:20:01.883Z,62.00
2019-01-29T06:21:09.559Z,71.20
2019-01-29T06:22:16.007Z,75.47
2019-01-29T06:23:22.410Z,65.72
2019-01-29T06:24:31.615Z,69.35
2019-01-29T06:25:39.291Z,66.57
2019-01-29T06:26:46.027Z,63.78
2019-01-29T06:27:52.546Z,67.00
2019-01-29T06:28:59.043Z,68.72
2019-01-29T06:30:06.341Z,73.87
2019-01-29T06:31:12.909Z,72.50
2019-01-29T06:32:19.417Z,76.45
2019-01-29T06:33:25.917Z,69.00
2019-01-29T06:34:32.394Z,69.55
2019-01-29T06:35:38.787Z,65.72
2019-01-29T06:36:45.214Z,70.55
2019-01-29T06:37:51.729Z,75.60
2019-01-29T06:38:58.211Z,70.20
2019-01-29T06:40:05.239Z,69.32
2019-01-29T06:41:11.830Z,73.07
2019-01-29T06:42:18.374Z,70.62
2019-01-29T06:43:24.893Z,69.58
2019-01-29T06:44:31.303Z,69.77
2019-01-29T06:45:37.734Z,74.03
2019-01-29T06:46:44.274Z,75.62
2019-01-29T06:47:50.936Z,75.52
2019-01-29T06:48:57.486Z,70.90
2019-01-29T06:50:04.422Z,71.05
2019-01-29T06:51:10.990Z,75.20
2019-01-29T06:52:19.098Z,75.62
2019-01-29T06:53:25.688Z,73.72
2019-01-29T06:54:34.152Z,77.75
2019-01-29T06:55:40.452Z,76.57
2019-01-29T06:56:47.501Z,73.00
2019-01-29T06:57:55.921Z,79.65
2019-01-29T06:59:02.799Z,74.22
2019-01-29T07:00:12.440Z,69.90
2019-01-29T07:01:18.889Z,64.95
2019-01-29T07:02:26.375Z,73.42
2019-01-29T07:03:32.859Z,75.45
2019-01-29T07:04:39.279Z,69.62
2019-01-29T07:05:45.703Z,76.57
2019-01-29T07:06:52.194Z,71.67
2019-01-29T07:07:58.666Z,71.30
2019-01-29T07:09:07.563Z,71.22
2019-01-29T07:10:15.807Z,70.35
2019-01-29T07:11:22.224Z,71.65
2019-01-29T07:12:28.863Z,68.70
2019-01-29T07:13:35.385Z,73.45
2019-01-29T07:14:42.005Z,74.12
2019-01-29T07:16:06.438Z,73.80
2019-01-29T07:17:33.238Z,72.53
2019-01-29T07:18:45.746Z,72.92
2019-01-29T07:19:54.906Z,70.47
2019-01-29T07:21:02.401Z,81.22
2019-01-29T07:22:08.854Z,72.80
2019-01-29T07:23:15.379Z,72.12
2019-01-29T07:24:21.868Z,65.00
2019-01-29T07:25:28.493Z,65.83
2019-01-29T07:26:35.035Z,69.05
2019-01-29T07:27:41.370Z,73.97
2019-01-29T07:28:47.936Z,66.02
2019-01-29T07:29:54.406Z,69.55
2019-01-29T07:31:00.960Z,76.05
2019-01-29T07:32:07.640Z,70.70
2019-01-29T07:33:15.146Z,71.12
2019-01-29T07:34:21.660Z,69.60
2019-01-29T07:35:28.302Z,68.50
2019-01-29T07:36:34.696Z,67.03
2019-01-29T07:37:41.151Z,69.50
2019-01-29T07:38:47.797Z,71.57
2019-01-29T07:39:54.402Z,62.75
2019-01-29T07:41:00.910Z,73.55
2019-01-29T07:42:08.029Z,69.72
2019-01-29T07:43:14.589Z,68.20
2019-01-29T07:44:20.978Z,70.80
2019-01-29T07:45:27.584Z,73.87
2019-01-29T07:46:34.050Z,66.40
2019-01-29T07:47:40.621Z,62.78
2019-01-29T07:48:47.074Z,66.00
2019-01-29T07:49:53.521Z,63.02
2019-01-29T07:50:59.986Z,67.55
2019-01-29T07:52:06.698Z,60.78
2019-01-29T07:53:14.524Z,71.35
2019-01-29T07:54:21.161Z,67.47
2019-01-29T07:55:27.662Z,68.28
2019-01-29T07:56:34.138Z,58.28
2019-01-29T07:57:40.652Z,64.58
2019-01-29T07:58:49.404Z,72.55
2019-01-29T07:59:55.994Z,71.77
2019-01-29T08:01:03.107Z,64.40
2019-01-29T08:02:09.864Z,65.30
2019-01-29T08:03:16.490Z,62.08
2019-01-29T08:04:23.018Z,63.78
2019-01-29T08:05:29.514Z,61.85
2019-01-29T08:06:35.999Z,62.55
2019-01-29T08:07:42.634Z,64.40
2019-01-29T08:08:49.142Z,59.38
2019-01-29T08:09:55.698Z,62.93
2019-01-29T08:11:02.167Z,64.20
2019-01-29T08:12:08.690Z,63.33
2019-01-29T08:13:15.365Z,66.67
2019-01-29T08:14:21.872Z,65.57
2019-01-29T08:15:28.392Z,58.33
2019-01-29T08:16:34.844Z,56.95
2019-01-29T08:17:41.482Z,53.70
2019-01-29T08:18:48.062Z,58.08
2019-01-29T08:19:54.540Z,57.65
2019-01-29T08:21:01.030Z,57.83
2019-01-29T08:22:07.534Z,67.25
2019-01-29T08:23:13.976Z,62.20
2019-01-29T08:24:20.678Z,60.12
2019-01-29T08:25:27.108Z,59.70
2019-01-29T08:26:33.700Z,59.15
2019-01-29T08:27:42.002Z,60.98
2019-01-29T08:28:48.410Z,61.90
2019-01-29T08:29:54.926Z,63.17
2019-01-29T08:31:01.422Z,50.92
2019-01-29T08:32:08.009Z,61.05
2019-01-29T08:33:14.499Z,58.45
2019-01-29T08:34:21.170Z,63.23
2019-01-29T08:35:27.748Z,56.55
2019-01-29T08:36:35.586Z,57.20
2019-01-29T08:37:42.313Z,55.92
2019-01-29T08:38:48.869Z,58.55
2019-01-29T08:39:55.350Z,57.17
2019-01-29T08:41:02.115Z,48.75
2019-01-29T08:42:08.719Z,51.95
2019-01-29T08:43:15.473Z,50.55
2019-01-29T08:44:21.866Z,52.10
2019-01-29T08:45:28.500Z,51.60
2019-01-29T08:46:35.060Z,57.83
2019-01-29T08:47:41.720Z,55.92
2019-01-29T08:48:48.194Z,52.60
2019-01-29T08:49:54.755Z,49.98
2019-01-29T08:51:01.169Z,51.50
2019-01-29T08:52:07.918Z,52.23
2019-01-29T08:53:14.364Z,52.67
2019-01-29T08:54:20.788Z,57.45
2019-01-29T08:55:27.379Z,53.83
2019-01-29T08:56:33.843Z,54.05
2019-01-29T08:57:41.537Z,51.77
2019-01-29T08:58:49.120Z,53.68
2019-01-29T08:59:55.697Z,51.80
2019-01-29T09:01:02.217Z,44.90
2019-01-29T09:02:08.718Z,48.05
2019-01-29T09:03:15.537Z,51.50
2019-01-29T09:04:22.026Z,44.75
2019-01-29T09:05:28.557Z,54.80
2019-01-29T09:06:36.416Z,51.35
2019-01-29T09:07:42.879Z,50.38
2019-01-29T09:08:49.686Z,48.55
2019-01-29T09:09:56.258Z,54.20
2019-01-29T09:11:02.772Z,46.90
2019-01-29T09:12:09.264Z,47.90
2019-01-29T09:13:15.851Z,50.75
2019-01-29T09:14:22.569Z,51.00
2019-01-29T09:15:29.876Z,51.35
2019-01-29T09:16:36.553Z,44.58
2019-01-29T09:17:43.310Z,42.20
2019-01-29T09:18:49.846Z,50.08
2019-01-29T09:19:56.539Z,49.65
2019-01-29T09:21:04.181Z,48.83
2019-01-29T09:22:21.691Z,48.28
2019-01-29T09:23:28.289Z,47.60
2019-01-29T09:24:34.981Z,42.17
2019-01-29T09:25:41.557Z,44.53
2019-01-29T09:26:48.036Z,45.15
2019-01-29T09:27:54.722Z,40.83
2019-01-29T09:29:01.230Z,38.10
2019-01-29T09:30:09.664Z,38.20
2019-01-29T09:31:16.299Z,38.23
2019-01-29T09:32:23.033Z,36.50
2019-01-29T09:33:29.535Z,40.35
2019-01-29T09:34:36.257Z,37.95
2019-01-29T09:35:42.684Z,39.70
2019-01-29T09:36:49.240Z,36.95
2019-01-29T09:37:55.734Z,39.30
2019-01-29T09:39:02.211Z,41.33
2019-01-29T09:40:11.426Z,35.52
2019-01-29T09:41:17.895Z,37.50
2019-01-29T09:42:25.191Z,42.03
2019-01-29T09:43:31.863Z,37.58
2019-01-29T09:44:38.333Z,39.45
2019-01-29T09:45:44.975Z,38.63
2019-01-29T09:46:51.377Z,43.95
2019-01-29T09:47:58.967Z,40.08
2019-01-29T09:49:05.556Z,46.00
2019-01-29T09:50:13.790Z,38.17
2019-01-29T09:51:20.434Z,38.92
2019-01-29T09:52:27.296Z,33.42
2019-01-29T09:53:34.040Z,42.90
2019-01-29T09:54:40.551Z,37.03
2019-01-29T09:55:47.067Z,38.30
2019-01-29T09:56:54.686Z,36.63
2019-01-29T09:58:01.147Z,34.63
2019-01-29T09:59:07.806Z,37.42
2019-01-29T10:00:18.343Z,37.20
2019-01-29T10:01:25.054Z,34.18
2019-01-29T10:02:31.663Z,34.30
2019-01-29T10:03:39.260Z,38.75
2019-01-29T10:04:45.885Z,38.80
2019-01-29T10:05:52.342Z,34.03
2019-01-29T10:06:59.355Z,33.98
2019-01-29T10:08:07.824Z,32.78
2019-01-29T10:09:14.367Z,32.65
2019-01-29T10:10:21.118Z,32.10
2019-01-29T10:11:28.629Z,29.25
2019-01-29T10:12:35.270Z,34.45
2019-01-29T10:13:41.764Z,30.95
2019-01-29T10:14:48.307Z,30.02
2019-01-29T10:15:54.754Z,32.38
2019-01-29T10:17:01.310Z,33.00
2019-01-29T10:18:07.913Z,30.48
2019-01-29T10:19:14.477Z,32.67
2019-01-29T10:20:21.518Z,33.10
2019-01-29T10:21:28.185Z,32.65
2019-01-29T10:22:35.176Z,30.80
2019-01-29T10:23:42.917Z,29.12
2019-01-29T10:24:49.826Z,30.62
2019-01-29T10:25:56.942Z,28.40
2019-01-29T10:27:03.664Z,34.73
2019-01-29T10:28:10.393Z,29.10
2019-01-29T10:29:16.994Z,32.40
2019-01-29T10:30:24.013Z,29.92
2019-01-29T10:31:31.798Z,32.55
2019-01-29T10:32:38.258Z,29.50
2019-01-29T10:33:44.809Z,28.57
2019-01-29T10:34:51.386Z,31.52
2019-01-29T10:35:57.974Z,27.13
2019-01-29T10:37:04.714Z,26.60
2019-01-29T10:38:11.419Z,28.47
2019-01-29T10:39:18.051Z,28.42
2019-01-29T10:40:26.643Z,28.00
2019-01-29T10:41:33.209Z,30.97
2019-01-29T10:42:39.808Z,27.87
2019-01-29T10:43:46.527Z,25.90
2019-01-29T10:44:53.392Z,30.15
2019-01-29T10:46:00.079Z,27.62
2019-01-29T10:47:06.771Z,30.27
2019-01-29T10:48:13.452Z,29.50
2019-01-29T10:49:20.111Z,29.98
2019-01-29T10:50:27.966Z,24.12
2019-01-29T10:51:34.399Z,27.93
2019-01-29T10:52:41.205Z,28.15
2019-01-29T10:53:47.939Z,27.77
2019-01-29T10:54:54.763Z,30.25
2019-01-29T10:56:01.226Z,31.27
2019-01-29T10:57:07.658Z,28.10
2019-01-29T10:58:14.139Z,29.50
2019-01-29T10:59:20.633Z,29.32
2019-01-29T11:00:33.123Z,31.93
2019-01-29T11:01:39.562Z,30.02
2019-01-29T11:02:46.027Z,28.12
2019-01-29T11:03:52.478Z,32.50
2019-01-29T11:04:59.061Z,30.40
2019-01-29T11:06:05.845Z,34.90
2019-01-29T11:07:12.447Z,31.82
2019-01-29T11:08:20.180Z,35.30
2019-01-29T11:09:26.929Z,30.40
2019-01-29T11:10:33.755Z,31.93
2019-01-29T11:11:40.295Z,29.92
2019-01-29T11:12:46.904Z,31.23
2019-01-29T11:13:53.519Z,30.32
2019-01-29T11:15:00.041Z,29.15
2019-01-29T11:16:06.702Z,29.98
2019-01-29T11:17:13.221Z,29.40
2019-01-29T11:18:19.711Z,27.25
2019-01-29T11:19:26.205Z,31.87
2019-01-29T11:20:51.537Z,27.45
2019-01-29T11:21:57.931Z,29.72
2019-01-29T11:23:04.456Z,30.20
2019-01-29T11:24:10.883Z,28.32
2019-01-29T11:25:20.368Z,27.60
2019-01-29T11:26:26.674Z,30.97
2019-01-29T11:27:33.212Z,27.25
2019-01-29T11:28:39.741Z,26.65
2019-01-29T11:29:46.285Z,25.95
2019-01-29T11:30:52.704Z,25.00
2019-01-29T11:31:59.186Z,27.27
2019-01-29T11:33:07.671Z,26.23
2019-01-29T11:34:14.086Z,25.35
2019-01-29T11:35:31.848Z,25.77
2019-01-29T11:36:38.365Z,25.00
2019-01-29T11:37:44.923Z,26.95
2019-01-29T11:38:51.340Z,26.15
2019-01-29T11:39:58.024Z,28.32
2019-01-29T11:41:04.539Z,30.48
2019-01-29T11:42:11.092Z,30.15
2019-01-29T11:43:17.685Z,25.80
2019-01-29T11:44:24.164Z,29.18
2019-01-29T11:45:51.537Z,27.22
2019-01-29T11:46:58.179Z,23.65
2019-01-29T11:48:04.926Z,27.40
2019-01-29T11:49:11.470Z,26.82
2019-01-29T11:50:19.360Z,25.68
2019-01-29T11:51:25.961Z,24.52
2019-01-29T11:52:32.891Z,24.75
2019-01-29T11:53:39.394Z,27.10
2019-01-29T11:54:47.503Z,29.52
2019-01-29T11:55:54.019Z,27.50
2019-01-29T11:57:00.599Z,25.12
2019-01-29T11:58:07.261Z,24.90
2019-01-29T11:59:13.927Z,23.10
2019-01-29T12:00:28.757Z,28.52
2019-01-29T12:01:35.416Z,25.12
2019-01-29T12:02:41.891Z,30.85
2019-01-29T12:03:48.467Z,26.93
2019-01-29T12:04:54.974Z,26.12
2019-01-29T12:06:01.426Z,26.80
2019-01-29T12:07:07.980Z,29.18
2019-01-29T12:08:14.723Z,26.68
2019-01-29T12:09:21.557Z,25.68
2019-01-29T12:10:27.987Z,27.58
2019-01-29T12:11:34.418Z,25.52
2019-01-29T12:12:40.947Z,25.72
2019-01-29T12:13:47.599Z,25.55
2019-01-29T12:14:54.295Z,23.75
2019-01-29T12:16:01.112Z,25.70
2019-01-29T12:17:07.702Z,24.72
2019-01-29T12:18:14.179Z,24.45
2019-01-29T12:19:20.770Z,23.98
2019-01-29T12:20:27.402Z,22.52
2019-01-29T12:21:34.043Z,19.55
2019-01-29T12:22:40.595Z,22.62
2019-01-29T12:23:47.122Z,21.90
2019-01-29T12:24:53.750Z,21.40
2019-01-29T12:26:00.189Z,22.42
2019-01-29T12:27:06.648Z,25.52
2019-01-29T12:28:18.778Z,25.37
2019-01-29T12:29:45.651Z,24.47
2019-01-29T12:30:52.247Z,27.10
2019-01-29T12:31:58.752Z,25.65
2019-01-29T12:33:06.741Z,26.02
2019-01-29T12:34:13.118Z,22.90
2019-01-29T12:35:23.802Z,24.32
2019-01-29T12:36:30.712Z,25.85
2019-01-29T12:37:37.144Z,27.62
2019-01-29T12:38:44.726Z,27.07
2019-01-29T12:39:51.218Z,23.30
2019-01-29T12:40:57.694Z,26.52
2019-01-29T12:42:04.525Z,23.85
2019-01-29T12:43:13.525Z,25.77
2019-01-29T12:44:20.084Z,24.80
2019-01-29T12:45:26.488Z,21.68
2019-01-29T12:46:43.559Z,22.02
2019-01-29T12:47:50.171Z,24.82
2019-01-29T12:48:56.593Z,24.12
2019-01-29T12:50:03.071Z,24.80
2019-01-29T12:51:16.736Z,20.23
2019-01-29T12:52:29.489Z,28.42
2019-01-29T12:53:38.333Z,24.98
2019-01-29T12:54:44.759Z,23.55
2019-01-29T12:55:51.292Z,21.82
2019-01-29T12:56:58.550Z,20.92
2019-01-29T12:58:06.968Z,25.05
2019-01-29T12:59:13.487Z,19.90
2019-01-29T13:00:27.734Z,21.80
2019-01-29T13:01:56.304Z,20.62
2019-01-29T13:03:03.404Z,22.93
2019-01-29T13:04:09.857Z,20.90
2019-01-29T13:05:16.625Z,21.12
2019-01-29T13:06:23.078Z,21.15
2019-01-29T13:07:29.624Z,24.20
2019-01-29T13:08:36.180Z,21.77
2019-01-29T13:09:44.141Z,18.87
2019-01-29T13:10:52.278Z,18.87
2019-01-29T13:11:58.834Z,19.35
2019-01-29T13:13:05.568Z,18.32
2019-01-29T13:14:12.024Z,17.37
2019-01-29T13:15:21.229Z,18.15
2019-01-29T13:16:27.915Z,19.73
2019-01-29T13:17:34.463Z,21.05
2019-01-29T13:18:41.003Z,18.82
2019-01-29T13:19:47.456Z,18.65
2019-01-29T13:20:54.047Z,18.17
2019-01-29T13:22:00.527Z,17.25
2019-01-29T13:23:07.148Z,17.17
2019-01-29T13:24:13.522Z,16.02
2019-01-29T13:25:20.103Z,16.73
2019-01-29T13:26:30.054Z,15.50
2019-01-29T13:27:34.764Z,17.07
2019-01-29T13:28:41.158Z,15.65
2019-01-29T13:29:47.970Z,16.12
2019-01-29T13:30:54.687Z,15.95
2019-01-29T13:32:01.102Z,16.35
2019-01-29T13:33:10.394Z,13.70
2019-01-29T13:34:16.905Z,15.53
2019-01-29T13:35:24.860Z,16.52
2019-01-29T13:36:32.739Z,20.15
2019-01-29T13:37:39.547Z,14.05
2019-01-29T13:38:46.313Z,16.37
2019-01-29T13:39:52.827Z,15.68
2019-01-29T13:40:59.335Z,15.18
2019-01-29T13:42:05.809Z,17.98
2019-01-29T13:43:12.308Z,14.60
2019-01-29T13:44:18.939Z,14.60
2019-01-29T13:45:25.944Z,15.03
2019-01-29T13:46:32.582Z,15.95
2019-01-29T13:47:39.223Z,13.55
2019-01-29T13:48:45.724Z,19.65
2019-01-29T13:49:52.206Z,15.95
2019-01-29T13:51:00.840Z,16.65
2019-01-29T13:52:07.203Z,18.80
2019-01-29T13:53:13.791Z,17.75
2019-01-29T13:54:20.286Z,15.30
2019-01-29T13:55:27.027Z,16.12
2019-01-29T13:56:38.782Z,14.83
2019-01-29T13:57:41.881Z,16.52
2019-01-29T13:58:48.410Z,16.30
2019-01-29T13:59:54.780Z,15.88
2019-01-29T14:01:01.493Z,16.57
2019-01-29T14:02:08.062Z,18.82
2019-01-29T14:03:14.918Z,14.65
2019-01-29T14:04:21.294Z,17.00
2019-01-29T14:05:27.765Z,15.98
2019-01-29T14:06:34.255Z,15.43
2019-01-29T14:07:42.053Z,17.10
2019-01-29T14:08:48.535Z,15.93
2019-01-29T14:10:05.913Z,17.27
2019-01-29T14:11:12.458Z,20.17
2019-01-29T14:12:18.895Z,24.25
2019-01-29T14:13:25.664Z,20.12
2019-01-29T14:14:34.399Z,18.02
2019-01-29T14:15:44.567Z,18.50
2019-01-29T14:16:51.035Z,22.58
2019-01-29T14:17:57.866Z,20.55
2019-01-29T14:19:05.565Z,19.67
2019-01-29T14:20:15.675Z,16.77
2019-01-29T14:21:23.387Z,14.65
2019-01-29T14:22:29.870Z,18.75
2019-01-29T14:23:36.470Z,15.53